createdAt,value
2018-05-08T00:01:35.116Z,4.40
2018-05-08T00:04:02.668Z,3.63
2018-05-08T00:06:30.234Z,4.47
2018-05-08T00:08:57.831Z,5.83
2018-05-08T00:11:25.355Z,3.70
2018-05-08T00:13:52.944Z,4.70
2018-05-08T00:16:20.511Z,4.63
2018-05-08T00:18:48.055Z,5.03
2018-05-08T00:21:15.619Z,5.03
2018-05-08T00:23:43.159Z,4.97
2018-05-08T00:26:10.760Z,5.00
2018-05-08T00:28:38.316Z,4.53
2018-05-08T00:31:05.887Z,5.70
2018-05-08T00:33:33.423Z,5.30
2018-05-08T00:36:00.995Z,6.23
2018-05-08T00:38:28.542Z,6.03
2018-05-08T00:40:56.073Z,6.50
2018-05-08T00:43:23.652Z,6.63
2018-05-08T00:45:51.215Z,6.93
2018-05-08T00:48:18.783Z,5.87
2018-05-08T00:50:46.323Z,6.10
2018-05-08T00:53:13.888Z,6.60
2018-05-08T00:55:41.431Z,5.33
2018-05-08T00:58:09.010Z,5.77
2018-05-08T01:00:36.552Z,6.53
2018-05-08T01:03:04.134Z,6.47
2018-05-08T01:05:31.677Z,6.20
2018-05-08T01:07:59.245Z,4.87
2018-05-08T01:10:26.790Z,5.27
2018-05-08T01:12:54.354Z,5.70
2018-05-08T01:15:21.896Z,4.83
2018-05-08T01:17:49.461Z,5.60
2018-05-08T01:20:17.006Z,5.57
2018-05-08T01:22:44.585Z,6.00
2018-05-08T01:25:12.131Z,6.03
2018-05-08T01:27:39.752Z,5.90
2018-05-08T01:30:07.266Z,5.30
2018-05-08T01:32:34.830Z,5.03
2018-05-08T01:35:02.372Z,5.60
2018-05-08T01:37:29.942Z,5.20
2018-05-08T01:39:57.488Z,5.30
2018-05-08T01:42:25.057Z,5.70
2018-05-08T01:44:52.591Z,5.33
2018-05-08T01:47:20.931Z,5.30
2018-05-08T01:49:48.466Z,4.80
2018-05-08T01:52:16.031Z,5.93
2018-05-08T01:54:43.579Z,5.83
2018-05-08T01:57:12.157Z,5.10
2018-05-08T01:59:39.694Z,5.30
2018-05-08T02:02:07.267Z,5.60
2018-05-08T02:04:34.815Z,5.53
2018-05-08T02:07:02.383Z,5.40
2018-05-08T02:09:29.941Z,4.70
2018-05-08T02:11:57.491Z,5.53
2018-05-08T02:14:25.972Z,5.20
2018-05-08T02:16:53.510Z,5.60
2018-05-08T02:19:21.843Z,5.20
2018-05-08T02:21:49.400Z,5.37
2018-05-08T02:24:16.972Z,5.20
2018-05-08T02:26:44.518Z,4.97
2018-05-08T02:29:12.091Z,5.20
2018-05-08T02:31:39.635Z,5.93
2018-05-08T02:34:07.216Z,5.60
2018-05-08T02:36:34.766Z,5.00
2018-05-08T02:39:02.335Z,5.83
2018-05-08T02:41:29.871Z,5.70
2018-05-08T02:43:57.433Z,5.63
2018-05-08T02:46:24.978Z,6.07
2018-05-08T02:48:52.549Z,5.97
2018-05-08T02:51:20.093Z,5.77
2018-05-08T02:53:47.671Z,6.47
2018-05-08T02:56:15.210Z,5.57
2018-05-08T02:58:42.784Z,5.53
2018-05-08T03:01:10.331Z,6.60
2018-05-08T03:03:37.908Z,5.93
2018-05-08T03:06:05.461Z,5.90
2018-05-08T03:08:33.028Z,5.90
2018-05-08T03:11:00.580Z,5.00
2018-05-08T03:13:28.139Z,5.63
2018-05-08T03:15:55.676Z,4.63
2018-05-08T03:18:24.007Z,5.33
2018-05-08T03:20:51.549Z,5.00
2018-05-08T03:23:19.129Z,5.43
2018-05-08T03:25:46.665Z,5.20
2018-05-08T03:28:14.223Z,5.53
2018-05-08T03:30:41.781Z,5.70
2018-05-08T03:33:09.351Z,5.20
2018-05-08T03:35:36.912Z,6.60
2018-05-08T03:38:04.456Z,5.47
2018-05-08T03:40:32.019Z,5.70
2018-05-08T03:43:00.566Z,5.20
2018-05-08T03:45:28.899Z,5.97
2018-05-08T03:47:56.437Z,5.23
2018-05-08T03:50:24.064Z,4.73
2018-05-08T03:52:51.571Z,4.70
2018-05-08T03:55:19.129Z,4.80
2018-05-08T03:57:46.730Z,4.40
2018-05-08T04:00:26.179Z,4.40
2018-05-08T04:03:06.244Z,4.60
2018-05-08T04:05:45.675Z,6.90
2018-05-08T04:08:37.681Z,6.97
2018-05-08T04:11:05.246Z,5.90
2018-05-08T04:13:33.554Z,5.57
2018-05-08T04:16:01.101Z,5.53
2018-05-08T04:18:29.404Z,4.67
2018-05-08T04:20:56.977Z,10.93
2018-05-08T04:23:24.530Z,6.57
2018-05-08T04:25:52.093Z,6.37
2018-05-08T04:28:19.625Z,5.40
2018-05-08T04:30:47.205Z,5.37
2018-05-08T04:33:14.761Z,5.20
2018-05-08T04:35:42.342Z,4.87
2018-05-08T04:38:09.888Z,5.70
2018-05-08T04:40:37.450Z,5.50
2018-05-08T04:43:04.995Z,5.83
2018-05-08T04:45:32.551Z,5.73
2018-05-08T04:48:00.111Z,5.13
2018-05-08T04:50:27.691Z,6.80
2018-05-08T04:52:55.249Z,6.97
2018-05-08T04:55:22.823Z,5.30
2018-05-08T04:57:50.362Z,5.20
2018-05-08T05:00:17.921Z,6.60
2018-05-08T05:02:45.512Z,6.17
2018-05-08T05:05:13.048Z,7.53
2018-05-08T05:07:40.597Z,6.70
2018-05-08T05:10:08.174Z,7.33
2018-05-08T05:12:36.491Z,7.23
2018-05-08T05:15:04.832Z,5.87
2018-05-08T05:17:32.373Z,6.80
2018-05-08T05:19:59.954Z,6.90
2018-05-08T05:22:27.495Z,7.10
2018-05-08T05:24:55.042Z,8.67
2018-05-08T05:27:22.610Z,7.53
2018-05-08T05:29:50.168Z,7.93
2018-05-08T05:32:17.732Z,7.60
2018-05-08T05:34:45.279Z,8.17
2018-05-08T05:37:12.845Z,8.90
2018-05-08T05:39:40.398Z,8.60
2018-05-08T05:42:07.972Z,7.23
2018-05-08T05:44:35.509Z,5.60
2018-05-08T05:47:03.075Z,6.07
2018-05-08T05:49:30.615Z,5.60
2018-05-08T05:51:58.950Z,6.90
2018-05-08T05:54:26.503Z,8.33
2018-05-08T05:56:54.075Z,8.93
2018-05-08T05:59:22.385Z,9.33
2018-05-08T06:01:50.724Z,8.20
2018-05-08T06:04:18.287Z,9.10
2018-05-08T06:06:45.862Z,8.30
2018-05-08T06:09:13.411Z,8.67
2018-05-08T06:11:41.012Z,6.93
2018-05-08T06:14:09.331Z,7.07
2018-05-08T06:16:36.899Z,7.23
2018-05-08T06:19:04.444Z,8.17
2018-05-08T06:21:32.019Z,9.40
2018-05-08T06:23:59.580Z,9.30
2018-05-08T06:26:27.159Z,9.37
2018-05-08T06:28:54.698Z,9.23
2018-05-08T06:31:22.260Z,7.00
2018-05-08T06:33:49.807Z,6.27
2018-05-08T06:36:17.377Z,5.80
2018-05-08T06:38:44.922Z,4.80
2018-05-08T06:41:12.470Z,4.20
2018-05-08T06:43:40.043Z,4.10
2018-05-08T06:46:07.590Z,3.63
2018-05-08T06:48:35.167Z,5.50
2018-05-08T06:51:02.704Z,3.50
2018-05-08T06:53:30.275Z,3.40
2018-05-08T06:55:57.828Z,2.87
2018-05-08T06:58:26.416Z,2.30
2018-05-08T07:00:53.980Z,2.77
2018-05-08T07:03:21.553Z,2.90
2018-05-08T07:05:49.172Z,2.73
2018-05-08T07:08:16.693Z,2.53
2018-05-08T07:10:44.240Z,3.13
2018-05-08T07:13:13.318Z,3.50
2018-05-08T07:15:40.909Z,3.50
2018-05-08T07:18:08.476Z,2.73
2018-05-08T07:20:36.785Z,2.27
2018-05-08T07:23:04.371Z,2.70
2018-05-08T07:25:31.911Z,2.97
2018-05-08T07:27:59.466Z,3.10
2018-05-08T07:30:27.017Z,3.07
2018-05-08T07:32:54.598Z,2.40
2018-05-08T07:35:22.143Z,3.20
2018-05-08T07:37:49.739Z,2.40
2018-05-08T07:40:17.320Z,3.00
2018-05-08T07:42:44.872Z,2.13
2018-05-08T07:45:12.424Z,3.07
2018-05-08T07:47:39.990Z,2.80
2018-05-08T07:50:07.529Z,3.00
2018-05-08T07:52:35.103Z,2.63
2018-05-08T07:55:02.658Z,3.10
2018-05-08T07:57:30.210Z,3.27
2018-05-08T07:59:57.777Z,2.43
2018-05-08T08:02:25.317Z,2.70
2018-05-08T08:04:52.887Z,3.00
2018-05-08T08:07:20.423Z,2.83
2018-05-08T08:09:47.982Z,2.50
2018-05-08T08:12:15.524Z,2.80
2018-05-08T08:14:43.862Z,3.07
2018-05-08T08:17:11.402Z,2.53
2018-05-08T08:19:38.965Z,2.10
2018-05-08T08:22:06.514Z,3.00
2018-05-08T08:24:34.169Z,2.33
2018-05-08T08:27:01.713Z,2.63
2018-05-08T08:29:29.283Z,2.80
2018-05-08T08:31:56.826Z,2.53
2018-05-08T08:34:24.419Z,2.90
2018-05-08T08:36:51.962Z,2.60
2018-05-08T08:39:19.522Z,2.53
2018-05-08T08:41:47.071Z,2.50
2018-05-08T08:44:14.629Z,2.43
2018-05-08T08:46:42.165Z,2.70
2018-05-08T08:49:10.499Z,2.40
2018-05-08T08:51:38.038Z,3.17
2018-05-08T08:54:05.603Z,2.40
2018-05-08T08:56:33.152Z,2.80
2018-05-08T08:59:00.717Z,3.17
2018-05-08T09:01:28.254Z,2.50
2018-05-08T09:03:56.617Z,2.60
2018-05-08T09:06:24.145Z,2.87
2018-05-08T09:08:51.715Z,2.40
2018-05-08T09:11:19.296Z,2.53
2018-05-08T09:13:46.856Z,2.33
2018-05-08T09:16:15.179Z,2.67
2018-05-08T09:18:42.744Z,2.77
2018-05-08T09:21:10.287Z,3.20
2018-05-08T09:23:37.842Z,2.60
2018-05-08T09:26:05.383Z,2.43
2018-05-08T09:28:33.691Z,2.30
2018-05-08T09:31:01.254Z,2.50
2018-05-08T09:33:28.792Z,2.20
2018-05-08T09:35:56.355Z,1.77
2018-05-08T09:38:23.893Z,2.10
2018-05-08T09:40:52.299Z,2.07
2018-05-08T09:43:20.572Z,2.20
2018-05-08T09:45:48.146Z,2.83
2018-05-08T09:48:15.700Z,2.53
2018-05-08T09:50:43.263Z,2.97
2018-05-08T09:53:10.802Z,2.20
2018-05-08T09:55:38.379Z,1.87
2018-05-08T09:58:05.923Z,3.00
2018-05-08T10:00:33.486Z,1.80
2018-05-08T10:03:01.027Z,3.50
2018-05-08T10:05:29.359Z,2.33
2018-05-08T10:07:56.903Z,2.30
2018-05-08T10:10:24.458Z,2.50
2018-05-08T10:12:52.011Z,2.10
2018-05-08T10:15:19.591Z,2.90
2018-05-08T10:17:47.130Z,2.17
2018-05-08T10:20:14.685Z,2.30
2018-05-08T10:22:42.236Z,2.60
2018-05-08T10:25:09.812Z,2.20
2018-05-08T10:27:37.360Z,2.30
2018-05-08T10:30:04.931Z,2.40
2018-05-08T10:32:32.486Z,2.37
2018-05-08T10:35:00.051Z,2.47
2018-05-08T10:37:27.587Z,2.03
2018-05-08T10:39:55.166Z,2.50
2018-05-08T10:42:22.702Z,1.73
2018-05-08T10:44:50.275Z,2.30
2018-05-08T10:47:17.813Z,2.20
2018-05-08T10:49:46.139Z,1.80
2018-05-08T10:52:13.684Z,1.97
2018-05-08T10:54:41.247Z,2.43
2018-05-08T10:57:08.798Z,1.87
2018-05-08T10:59:36.386Z,1.90
2018-05-08T11:02:03.954Z,2.03
2018-05-08T11:04:31.536Z,1.97
2018-05-08T11:06:59.880Z,2.80
2018-05-08T11:09:27.424Z,2.20
2018-05-08T11:11:55.026Z,2.17
2018-05-08T11:14:22.559Z,2.17
2018-05-08T11:16:50.135Z,1.80
2018-05-08T11:19:17.671Z,2.33
2018-05-08T11:21:45.229Z,2.17
2018-05-08T11:24:12.791Z,2.00
2018-05-08T11:26:40.417Z,1.67
2018-05-08T11:29:08.708Z,2.17
2018-05-08T11:31:36.283Z,2.03
2018-05-08T11:34:03.836Z,2.10
2018-05-08T11:36:31.406Z,1.67
2018-05-08T11:38:58.956Z,2.23
2018-05-08T11:41:26.533Z,2.30
2018-05-08T11:43:54.071Z,2.37
2018-05-08T11:46:21.631Z,1.70
2018-05-08T11:48:49.170Z,2.00
2018-05-08T11:51:17.587Z,1.83
2018-05-08T11:53:45.117Z,2.23
2018-05-08T11:56:12.681Z,1.60
2018-05-08T11:58:40.225Z,2.10
2018-05-08T12:01:07.782Z,1.80
2018-05-08T12:03:35.318Z,1.40
2018-05-08T12:06:03.651Z,2.00
2018-05-08T12:08:31.205Z,1.60
2018-05-08T12:10:58.775Z,1.70
2018-05-08T12:13:26.317Z,2.20
2018-05-08T12:15:53.883Z,2.80
2018-05-08T12:18:21.425Z,1.73
2018-05-08T12:20:48.999Z,1.87
2018-05-08T12:23:16.544Z,2.10
2018-05-08T12:25:44.103Z,1.83
2018-05-08T12:28:11.652Z,1.70
2018-05-08T12:30:39.278Z,1.93
2018-05-08T12:33:06.787Z,2.37
2018-05-08T12:35:34.339Z,2.10
2018-05-08T12:38:01.907Z,1.70
2018-05-08T12:40:29.441Z,2.50
2018-05-08T12:42:57.856Z,2.90
2018-05-08T12:45:25.391Z,4.77
2018-05-08T12:47:52.954Z,2.30
2018-05-08T12:50:20.496Z,2.20
2018-05-08T12:52:48.828Z,2.10
2018-05-08T12:55:16.363Z,1.63
2018-05-08T12:57:43.935Z,1.80
2018-05-08T13:00:11.483Z,1.97
2018-05-08T13:02:39.047Z,1.77
2018-05-08T13:05:06.597Z,1.60
2018-05-08T13:07:34.154Z,2.30
2018-05-08T13:10:01.706Z,1.90
2018-05-08T13:12:29.265Z,2.47
2018-05-08T13:14:56.799Z,1.93
2018-05-08T13:17:25.140Z,2.00
2018-05-08T13:19:52.692Z,2.03
2018-05-08T13:22:21.033Z,2.57
2018-05-08T13:24:48.588Z,1.83
2018-05-08T13:27:16.920Z,2.27
2018-05-08T13:29:44.455Z,1.70
2018-05-08T13:32:12.028Z,2.17
2018-05-08T13:34:39.587Z,1.77
2018-05-08T13:37:07.142Z,2.53
2018-05-08T13:39:34.688Z,2.00
2018-05-08T13:42:02.300Z,1.63
2018-05-08T13:44:29.831Z,2.60
2018-05-08T13:46:57.379Z,2.10
2018-05-08T13:49:24.969Z,2.50
2018-05-08T13:51:52.505Z,2.00
2018-05-08T13:54:20.066Z,1.97
2018-05-08T13:56:47.616Z,1.90
2018-05-08T13:59:15.182Z,2.07
2018-05-08T14:01:42.729Z,2.07
2018-05-08T14:04:10.305Z,2.37
2018-05-08T14:06:37.862Z,2.30
2018-05-08T14:09:05.430Z,2.43
2018-05-08T14:11:32.969Z,2.53
2018-05-08T14:14:00.551Z,3.50
2018-05-08T14:16:28.103Z,2.07
2018-05-08T14:18:55.671Z,1.90
2018-05-08T14:21:23.208Z,2.17
2018-05-08T14:23:50.774Z,2.33
2018-05-08T14:26:18.324Z,1.80
2018-05-08T14:28:45.884Z,2.20
2018-05-08T14:31:13.433Z,2.10
2018-05-08T14:33:41.003Z,2.00
2018-05-08T14:36:08.554Z,2.07
2018-05-08T14:38:36.222Z,2.20
2018-05-08T14:41:03.700Z,1.87
2018-05-08T14:43:31.334Z,2.27
2018-05-08T14:45:58.872Z,2.33
2018-05-08T14:48:27.207Z,2.60
2018-05-08T14:50:54.764Z,2.37
2018-05-08T14:53:22.321Z,2.20
2018-05-08T14:55:49.875Z,2.27
2018-05-08T14:58:18.200Z,2.00
2018-05-08T15:00:45.784Z,2.43
2018-05-08T15:03:13.355Z,2.13
2018-05-08T15:05:40.922Z,2.10
2018-05-08T15:08:08.476Z,2.20
2018-05-08T15:10:36.043Z,2.53
2018-05-08T15:13:03.583Z,2.03
2018-05-08T15:15:31.155Z,2.23
2018-05-08T15:17:58.696Z,1.97
2018-05-08T15:20:26.266Z,2.20
2018-05-08T15:22:54.111Z,2.20
2018-05-08T15:25:21.378Z,1.93
2018-05-08T15:27:48.939Z,1.90
2018-05-08T15:30:16.502Z,1.90
2018-05-08T15:32:44.040Z,1.90
2018-05-08T15:35:12.362Z,2.40
2018-05-08T15:37:39.911Z,1.73
2018-05-08T15:40:07.465Z,2.10
2018-05-08T15:42:35.020Z,1.97
2018-05-08T15:45:02.597Z,1.97
2018-05-08T15:47:30.135Z,2.07
2018-05-08T15:49:57.707Z,2.20
2018-05-08T15:52:25.251Z,1.60
2018-05-08T15:54:52.828Z,2.20
2018-05-08T15:57:20.372Z,2.10
2018-05-08T15:59:47.937Z,1.93
2018-05-08T16:02:15.509Z,1.83
2018-05-08T16:04:43.853Z,1.70
2018-05-08T16:07:12.155Z,1.90
2018-05-08T16:09:39.735Z,2.30
2018-05-08T16:12:07.293Z,1.93
2018-05-08T16:14:34.851Z,2.27
2018-05-08T16:17:02.394Z,3.50
2018-05-08T16:19:29.982Z,2.40
2018-05-08T16:21:57.556Z,2.07
2018-05-08T16:24:25.116Z,2.50
2018-05-08T16:26:52.683Z,2.20
2018-05-08T16:29:20.234Z,2.00
2018-05-08T16:31:47.816Z,1.80
2018-05-08T16:34:16.131Z,2.60
2018-05-08T16:36:43.690Z,2.10
2018-05-08T16:39:11.246Z,2.10
2018-05-08T16:41:38.809Z,1.97
2018-05-08T16:44:06.358Z,2.37
2018-05-08T16:46:33.910Z,1.83
2018-05-08T16:49:01.456Z,2.10
2018-05-08T16:51:29.790Z,2.33
2018-05-08T16:53:57.335Z,3.00
2018-05-08T16:56:24.908Z,2.33
2018-05-08T16:58:52.459Z,3.53
2018-05-08T17:01:20.046Z,2.80
2018-05-08T17:03:47.601Z,2.40
2018-05-08T17:06:15.173Z,2.40
2018-05-08T17:08:43.496Z,2.67
2018-05-08T17:11:11.081Z,1.93
2018-05-08T17:13:38.621Z,2.50
2018-05-08T17:16:06.185Z,2.57
2018-05-08T17:18:33.728Z,2.40
2018-05-08T17:21:01.299Z,2.30
2018-05-08T17:23:28.830Z,2.50
2018-05-08T17:25:57.159Z,2.70
2018-05-08T17:28:24.699Z,3.00
2018-05-08T17:30:52.265Z,2.70
2018-05-08T17:33:19.995Z,2.70
2018-05-08T17:35:47.477Z,3.00
2018-05-08T17:38:15.022Z,2.70
2018-05-08T17:40:42.574Z,2.70
2018-05-08T17:43:10.138Z,2.27
2018-05-08T17:45:37.690Z,2.03
2018-05-08T17:48:05.256Z,2.70
2018-05-08T17:50:32.798Z,2.77
2018-05-08T17:53:01.132Z,2.50
2018-05-08T17:55:28.676Z,3.03
2018-05-08T17:57:56.229Z,2.50
2018-05-08T18:00:23.776Z,2.80
2018-05-08T18:02:51.360Z,2.60
2018-05-08T18:05:19.312Z,2.63
2018-05-08T18:07:46.961Z,2.67
2018-05-08T18:10:14.512Z,2.90
2018-05-08T18:12:42.294Z,3.03
2018-05-08T18:15:09.843Z,3.40
2018-05-08T18:17:37.502Z,3.23
2018-05-08T18:20:05.759Z,3.30
2018-05-08T18:22:34.096Z,3.00
2018-05-08T18:25:01.638Z,3.43
2018-05-08T18:27:29.212Z,3.00
2018-05-08T18:29:56.754Z,3.30
2018-05-08T18:32:24.330Z,3.50
2018-05-08T18:34:51.891Z,3.07
2018-05-08T18:37:19.456Z,3.07
2018-05-08T18:39:46.997Z,2.93
2018-05-08T18:42:14.573Z,3.00
2018-05-08T18:44:42.139Z,2.80
2018-05-08T18:47:09.707Z,2.43
2018-05-08T18:49:37.286Z,2.30
2018-05-08T18:52:04.855Z,2.50
2018-05-08T18:54:33.173Z,2.97
2018-05-08T18:57:00.741Z,3.17
2018-05-08T18:59:28.273Z,2.87
2018-05-08T19:01:55.830Z,2.80
2018-05-08T19:04:23.372Z,2.37
2018-05-08T19:06:51.702Z,2.50
2018-05-08T19:09:19.291Z,3.37
2018-05-08T19:11:47.627Z,3.10
2018-05-08T19:14:15.205Z,3.23
2018-05-08T19:16:42.843Z,3.67
2018-05-08T19:19:16.112Z,3.30
2018-05-08T19:21:43.658Z,2.50
2018-05-08T19:24:17.643Z,2.70
2018-05-08T19:26:45.211Z,3.03
2018-05-08T19:29:18.529Z,3.10
2018-05-08T19:31:46.846Z,2.70
2018-05-08T19:34:14.411Z,2.33
2018-05-08T19:36:47.587Z,2.50
2018-05-08T19:39:15.313Z,2.80
2018-05-08T19:41:43.010Z,2.40
2018-05-08T19:44:10.592Z,2.80
2018-05-08T19:46:38.143Z,2.77
2018-05-08T19:49:05.707Z,2.73
2018-05-08T19:51:33.256Z,2.60
2018-05-08T19:54:00.820Z,2.20
2018-05-08T19:56:28.374Z,2.43
2018-05-08T19:58:55.939Z,2.70
2018-05-08T20:01:23.472Z,3.30
2018-05-08T20:03:51.075Z,2.50
2018-05-08T20:06:18.619Z,2.87
2018-05-08T20:08:46.199Z,2.67
2018-05-08T20:11:13.765Z,2.13
2018-05-08T20:13:41.330Z,2.60
2018-05-08T20:16:08.865Z,3.00
2018-05-08T20:18:36.443Z,3.03
2018-05-08T20:21:03.986Z,2.50
2018-05-08T20:23:31.551Z,2.60
2018-05-08T20:25:59.094Z,2.60
2018-05-08T20:28:26.666Z,2.87
2018-05-08T20:30:54.207Z,2.83
2018-05-08T20:33:21.795Z,2.83
2018-05-08T20:35:49.339Z,3.17
2018-05-08T20:38:16.916Z,2.77
2018-05-08T20:40:44.467Z,2.67
2018-05-08T20:43:12.019Z,2.87
2018-05-08T20:45:39.582Z,2.70
2018-05-08T20:48:07.112Z,2.77
2018-05-08T20:50:34.671Z,2.80
2018-05-08T20:53:02.231Z,3.00
2018-05-08T20:55:29.839Z,2.73
2018-05-08T20:57:57.374Z,2.77
2018-05-08T21:00:24.944Z,3.20
2018-05-08T21:02:52.495Z,2.80
2018-05-08T21:05:20.071Z,2.90
2018-05-08T21:07:47.623Z,3.13
2018-05-08T21:10:15.206Z,3.47
2018-05-08T21:12:43.517Z,3.27
2018-05-08T21:15:11.103Z,2.93
2018-05-08T21:17:38.646Z,3.33
2018-05-08T21:20:06.246Z,3.23
2018-05-08T21:22:33.783Z,2.73
2018-05-08T21:25:01.354Z,3.73
2018-05-08T21:27:34.605Z,3.13
2018-05-08T21:33:08.011Z,4.40
2018-05-08T21:35:36.342Z,3.23
2018-05-08T21:38:03.881Z,3.77
2018-05-08T21:40:31.454Z,3.40
2018-05-08T21:42:58.999Z,3.60
2018-05-08T21:45:26.562Z,3.10
2018-05-08T21:47:54.117Z,3.37
2018-05-08T21:50:21.685Z,3.23
2018-05-08T21:52:49.228Z,3.20
2018-05-08T21:55:16.801Z,4.10
2018-05-08T21:57:44.346Z,3.17
2018-05-08T22:00:12.816Z,2.97
2018-05-08T22:02:40.365Z,2.90
2018-05-08T22:05:08.690Z,4.27
2018-05-08T22:07:36.235Z,4.07
2018-05-08T22:10:03.808Z,3.47
2018-05-08T22:12:31.337Z,3.17
2018-05-08T22:14:58.919Z,3.77
2018-05-08T22:17:26.465Z,3.33
2018-05-08T22:19:54.035Z,3.23
2018-05-08T22:22:21.573Z,3.40
2018-05-08T22:24:49.144Z,2.90
2018-05-08T22:27:16.697Z,3.17
2018-05-08T22:29:44.258Z,3.13
2018-05-08T22:32:11.803Z,3.30
2018-05-08T22:34:39.388Z,3.50
2018-05-08T22:37:06.934Z,2.97
2018-05-08T22:39:34.474Z,3.67
2018-05-08T22:42:02.812Z,3.50
2018-05-08T22:44:30.372Z,2.77
2018-05-08T22:46:57.927Z,2.90
2018-05-08T22:49:25.481Z,3.80
2018-05-08T22:51:53.044Z,3.40
2018-05-08T22:54:20.602Z,3.50
2018-05-08T22:56:48.168Z,3.60
2018-05-08T22:59:15.714Z,3.20
2018-05-08T23:01:43.283Z,3.20
2018-05-08T23:04:10.829Z,4.00
2018-05-08T23:06:38.399Z,3.63
2018-05-08T23:09:05.937Z,3.60
2018-05-08T23:11:33.509Z,3.03
2018-05-08T23:14:01.056Z,3.40
2018-05-08T23:16:28.621Z,3.40
2018-05-08T23:18:56.162Z,3.47
2018-05-08T23:21:23.731Z,4.13
2018-05-08T23:23:51.257Z,3.83
2018-05-08T23:26:19.597Z,3.40
2018-05-08T23:28:47.130Z,3.67
2018-05-08T23:31:14.696Z,3.70
2018-05-08T23:33:42.233Z,3.40
2018-05-08T23:36:09.786Z,3.50
2018-05-08T23:38:37.321Z,3.80
2018-05-08T23:41:04.899Z,3.50
2018-05-08T23:43:32.472Z,3.67
2018-05-08T23:46:00.045Z,3.90
2018-05-08T23:48:27.636Z,4.53
2018-05-08T23:50:55.198Z,4.33
2018-05-08T23:53:22.755Z,4.17
2018-05-08T23:55:50.329Z,4.97
2018-05-08T23:58:17.875Z,4.10
